Delray Beach, FL (33444)

12:08 AM EST on December 03, 2016 (GMT -0500)
Delray Beach | | Change Station

Elev 30 ft 26.47 °N, 80.09 °W | Updated 6 seconds ago

Partly Cloudy
Partly Cloudy
75.0 °F
Feels Like 75 °F
N
3.7
Wind Variable Wind from North
Gusts 6.8 mph

Today
High -- | Low -- °F
--% Chance of Precip.
Yesterday
High -- | Low -- °F
Precip. -- in
Pressure 30.09 in
Visibility 8.0 miles
Clouds Few 2500 ft
Heat Index 75 °F
Dew Point 69 °F
Humidity 81%
Rainfall 0.00 in
Snow Depth Not available.
6:53 AM 5:27 PM
Waxing Crescent, 12% visible
METAR KPMP 030453Z AUTO 05010KT 8SM FEW025 24/20 A3008 RMK AO2 SLP188 T02390200 402780228
Pressure 30.09 in
Visibility 8.0 miles
Clouds Few 2500 ft
Heat Index 75 °F
Dew Point 69 °F
Humidity 81%
Rainfall 0.00 in
Snow Depth Not available.
6:53 AM 5:27 PM
Waxing Crescent, 12% visible
METAR KPMP 030453Z AUTO 05010KT 8SM FEW025 24/20 A3008 RMK AO2 SLP188 T02390200 402780228

10-Day Weather Forecast

Almanac

Astronomy

Dec. 03, 2016 Rise Set
Actual Time
Civil Twilight
Nautical Twilight
Astronomical Twilight
Moon
Length of Visible Light
Length of Day
Tomorrow will be .
, % of the Moon is Illuminated

Today's Extremes

State Highs State Lows

Community

WunderPhotos

Upload Photos

1,955,411 photos uploaded!

WunderBlog® & News

Nearby

Air Quality

  Air Quality AQ Index Pollutant
Not available.

Snow Depth

Station Depth Elevation

Earthquake Activity

City Distance Mag. Time & Date
Minimum magnitude displayed is 2.5.

Coastal Water Temperatures

Place Temperature

Stations

Nearby Weather Stations

Station Location Temp. Windchill Dew Point Humidity Wind Precip. Elev Updated Type
                   

Watches & Warnings

There are currently no watches in effect.